Archival Weather

Centro Met. Antartico Pdte. E

Centro Met. Antartico Pdte. E, Antarctica (SCRM)

Report from: Thursday, September 21, 2023 11:00 PM UTC
Current time: Friday, February 23, 2024 8:00 PM UTC

Current weather – Weather history – Daily summaries
Weather forecast

Temperature-6.0°C (21.2°F)
Wind chill-15.5°C (4.2°F)
Dew point-9.0°C (15.8°F)
Winds 22 kts (11.3 m/s, 25.3 mph) West-Southwest (250°)
Visibility6.2 mi. (10 km)
Clouds Ceiling: Broken clouds 2,000 ft. (610 m)
Altimeter29.12 in.Hg (986 mB)
Relative humidity79 %
Density altitude-1,605 ft. (-489 m)
Remarks No significant changes expected in the next two hours
Flight conditions Marginal Visual Meteorological Conditions
Raw dataSCRM 212300Z 25022KT 9999 BKN020 M06/M09 Q0986 NOSIG
An error has occurred. This application may no longer respond until reloaded. Reload 🗙